createdAt,value
2018-01-16T00:01:26.755Z,148.5
2018-01-16T00:11:26.803Z,130.9
2018-01-16T00:21:26.966Z,139.1
2018-01-16T00:31:26.092Z,139.5
2018-01-16T00:41:26.132Z,129.5
2018-01-16T00:51:26.237Z,123.5
2018-01-16T01:01:26.698Z,115.6
2018-01-16T01:11:27.295Z,98.5
2018-01-16T01:21:26.494Z,95.7
2018-01-16T01:31:26.639Z,57.6
2018-01-16T01:41:27.889Z,38.6
2018-01-16T01:51:26.201Z,30.1
2018-01-16T02:01:26.599Z,32.9
2018-01-16T02:11:26.609Z,30.0
2018-01-16T02:21:26.703Z,31.6
2018-01-16T02:31:28.275Z,28.7
2018-01-16T02:41:26.424Z,31.1
2018-01-16T02:51:26.535Z,29.7
2018-01-16T03:01:26.549Z,29.4
2018-01-16T03:11:29.774Z,28.4
2018-01-16T03:21:31.817Z,25.2
2018-01-16T03:31:32.402Z,25.4
2018-01-16T03:41:33.152Z,24.6
2018-01-16T03:51:27.026Z,20.1
2018-01-16T04:01:26.143Z,23.6
2018-01-16T04:11:27.960Z,26.8
2018-01-16T04:21:26.312Z,19.5
2018-01-16T04:31:26.955Z,18.2
2018-01-16T04:41:27.484Z,19.4
2018-01-16T04:51:27.958Z,17.9
2018-01-16T05:01:26.577Z,20.3
2018-01-16T05:11:29.157Z,20.6
2018-01-16T05:21:33.405Z,18.6
2018-01-16T05:31:27.150Z,21.6
2018-01-16T05:41:26.293Z,18.8
2018-01-16T05:51:26.580Z,20.4
2018-01-16T06:01:26.710Z,19.5
2018-01-16T06:11:28.530Z,21.3
2018-01-16T06:21:26.863Z,18.9
2018-01-16T06:31:26.341Z,20.0
2018-01-16T06:41:28.413Z,21.4
2018-01-16T06:51:26.531Z,22.9
2018-01-16T07:01:26.844Z,20.9
2018-01-16T07:11:26.354Z,19.0
2018-01-16T07:21:26.921Z,22.1
2018-01-16T07:31:29.617Z,20.4
2018-01-16T07:41:27.225Z,19.9
2018-01-16T07:51:26.523Z,26.6
2018-01-16T08:01:27.534Z,26.9
2018-01-16T08:11:27.036Z,26.5
2018-01-16T08:21:26.291Z,21.9
2018-01-16T08:31:26.358Z,19.2
2018-01-16T08:41:27.096Z,26.4
2018-01-16T08:51:26.490Z,29.6
2018-01-16T09:01:26.804Z,27.5
2018-01-16T09:11:25.977Z,22.7
2018-01-16T09:21:31.811Z,31.3
2018-01-16T09:31:33.132Z,31.1
2018-01-16T09:41:32.518Z,31.4
2018-01-16T09:51:32.136Z,24.3
2018-01-16T10:01:31.917Z,26.6
2018-01-16T10:11:27.796Z,26.6
2018-01-16T10:21:26.447Z,22.5
2018-01-16T10:31:28.041Z,29.2
2018-01-16T10:41:28.355Z,25.5
2018-01-16T10:51:28.259Z,25.3
2018-01-16T11:01:27.900Z,23.9
2018-01-16T11:11:28.588Z,25.4
2018-01-16T11:21:25.891Z,30.8
2018-01-16T11:31:27.770Z,27.7
2018-01-16T11:41:27.529Z,29.1
2018-01-16T11:51:26.854Z,30.8
2018-01-16T12:01:26.742Z,31.2
2018-01-16T12:11:28.645Z,28.4
2018-01-16T12:21:26.073Z,31.1
2018-01-16T12:31:28.691Z,28.8
2018-01-16T12:41:27.048Z,31.1
2018-01-16T12:51:27.653Z,24.1
2018-01-16T13:01:27.034Z,13.5
2018-01-16T13:11:27.642Z,10.9
2018-01-16T13:21:26.061Z,12.8
2018-01-16T13:31:27.520Z,12.8
2018-01-16T13:41:28.128Z,14.4
2018-01-16T13:51:26.635Z,18.9
2018-01-16T14:01:26.768Z,20.4
2018-01-16T14:11:28.317Z,23.3
2018-01-16T14:21:29.256Z,12.5
2018-01-16T14:31:29.609Z,17.7
2018-01-16T14:41:27.304Z,19.2
2018-01-16T14:51:27.348Z,21.5
2018-01-16T15:01:26.748Z,21.1
2018-01-16T15:11:28.833Z,29.3
2018-01-16T15:21:26.131Z,36.6
2018-01-16T15:31:26.902Z,41.2
2018-01-16T15:41:26.920Z,36.3
2018-01-16T15:51:26.222Z,29.8
2018-01-16T16:01:26.928Z,27.8
2018-01-16T16:11:30.787Z,31.6
2018-01-16T16:21:27.793Z,33.8
2018-01-16T16:31:27.319Z,35.4
2018-01-16T16:41:27.358Z,37.7
2018-01-16T16:51:27.368Z,42.8
2018-01-16T17:01:27.024Z,45.5
2018-01-16T17:11:26.248Z,41.8
2018-01-16T17:21:27.509Z,48.8
2018-01-16T17:31:26.647Z,39.0
2018-01-16T17:41:27.636Z,43.1
2018-01-16T17:51:26.776Z,43.0
2018-01-16T18:01:25.894Z,60.5
2018-01-16T18:11:25.969Z,54.2
2018-01-16T18:21:26.394Z,54.6
2018-01-16T18:31:26.882Z,56.9
2018-01-16T18:41:25.960Z,62.9
2018-01-16T18:51:26.732Z,59.7
2018-01-16T19:01:28.248Z,61.0
2018-01-16T19:11:26.318Z,61.4
2018-01-16T19:21:26.914Z,57.8
2018-01-16T19:31:26.377Z,60.9
2018-01-16T19:41:30.476Z,64.8
2018-01-16T19:51:26.958Z,70.8
2018-01-16T20:01:26.731Z,65.8
2018-01-16T20:11:25.963Z,71.4
2018-01-16T20:21:27.557Z,66.7
2018-01-16T20:31:27.503Z,71.0
2018-01-16T20:41:26.701Z,61.7
2018-01-16T20:51:27.649Z,72.0
2018-01-16T21:01:27.583Z,73.9
2018-01-16T21:11:26.779Z,72.5
2018-01-16T21:21:26.469Z,64.9
2018-01-16T21:31:27.101Z,60.3
2018-01-16T21:41:26.207Z,45.2
2018-01-16T21:51:26.409Z,32.4
2018-01-16T22:01:29.065Z,18.8
2018-01-16T22:11:27.558Z,15.1
2018-01-16T22:21:26.232Z,15.1
2018-01-16T22:31:27.021Z,14.5
2018-01-16T22:41:26.676Z,15.4
2018-01-16T22:51:28.024Z,16.2
2018-01-16T23:01:26.098Z,14.3
2018-01-16T23:11:28.506Z,14.7
2018-01-16T23:21:27.516Z,17.6
2018-01-16T23:31:27.011Z,13.1
2018-01-16T23:41:26.200Z,12.8
2018-01-16T23:51:27.944Z,11.4
